James M Cox Dayton International Airport
KDAY : rendu visible

Aérodrome :











RETROUVEZ-NOUS SUR...

 
LOGIN :

S'inscrire | Disclaimer

   EN    FR    IT 

 









Légende :    VFR   VFR Marginal   IFR   IFR Intensif   IFR Très Intensif
Visi : 
Plafond : 
>= 8 km
>= 3000ft
5 à 8 km
1000 à 3000 ft
1500m à 5 km
500 à 1000 ft
800 à 1500m
200 à 500 ft
< 800m
< 200 ft
Symboles :   Orages  Brouillard  Fortes neiges  Fortes précipitations  Vent > 20 kt






- Altitude de l'aérodrome : 1009 ft
- Code IATA : DAY


KDAY - James M Cox Dayton International

DERNIER METAR :
  • 191156Z 22004KT 5SM BR OVC023 03/02 A2979 RMK AO2 SLP095 60000 T00330017 10039 20033 53000

METARs EXPIRÉS :
  • 191059Z 21003KT 5SM BR FEW007 OVC022 03/02 A2978 RMK AO2 T00330017
  • 191056Z 22003KT 5SM BR FEW010 BKN013 OVC021 03/02 A2978 RMK AO2 SLP091 T00330017
  • 191020Z 23004KT 4SM BR SCT010 BKN013 OVC020 03/02 A2979 RMK AO2 T00330017
  • 190956Z 23005KT 4SM BR BKN008 OVC021 03/02 A2979 RMK AO2 DZE24 SLP092 P0000 T00330017

TAF KDAY
Valide du 19 à 12h jusqu'au 20 à 12h UTC


191120Z 1912/2012 22003KT 5SM BR OVC012
FM191500 20006KT P6SM BKN035
FM191800 20004KT P6SM VCSH BKN040
FM192300 VRB03KT P6SM BKN035
FM200400 30003KT P6SM OVC025
FM200900 31003KT P6SM OVC015



MET'MAP, la Météo Aéronautique d'un coup d'oeil ! - Copyright ORBIFLY Décembre 2007 - Disclaimer

ORBIFLY MET'MAP TEAM :

Programmation & Développement : Alexandra Zaïnal
Conception & Développement : Baudouin d'Aumeries
Co-Programmation & Développement : Marc-Olivier Méhu
Soutien technique & logistique : Manuel Goepfert

Contact : metmap@orbifly.com




SOURCES & CREDITS :

   NOAA       Earth
Advisory